Pahrump, Nevada Weather observations

Data are for observation ending at time listed.
 Day   Time    Ave.   Ave.  Ave.  Vector   Max.   Stn.    Total    Solar   Ave.  
  of    of     Air    Rel.  Wind   Wind    Wind   Baro.  Precip.   Rad.    Soil  
Year   Day     Temp.  Hum.  Speed  Dir.    Gust   Pres.                    Temp. 
2014   (PST)    F      %     mph   deg.    mph     mb.     in.     W/m2     F   
------------------------------------------------------------------------------
 243   13:50   98.6    10    2.4   204      6.6   921.0    0.00     836    95.7
 243   14:00   98.5    10    3.0   160      7.7   920.8    0.00     815    96.0
 243   14:10   99.3    10    3.2   175      6.7   920.5    0.00     794    96.4
 243   14:20   99.7    10    3.1   223      8.6   920.3    0.00     775    96.6
 243   14:30  100.0    10    3.4   244      7.0   920.0    0.00     749    96.7
 243   14:40   98.6    10    3.4   186      7.6   919.8    0.00     723    96.5
 243   14:50   98.5    10    2.1   100      4.6   919.5    0.00     696    96.3
 243   15:00   98.2    10    2.6   319      6.1   919.3    0.00     668    96.1
 243   15:10   98.8    10    2.7   231      5.6   919.1    0.00     638    95.8
 243   15:20   98.5    10    2.0   230      5.0   919.0    0.00     608    95.6
 243   15:30   98.4    10    2.2   132      5.0   918.7    0.00     577    95.3
 243   15:40   98.8     9    4.0   184      7.5   918.6    0.00     544    95.0
 243   15:50   99.0    10    3.7   219      6.4   918.5    0.00     510    94.8
 243   16:00   98.5    10    2.7   194      7.1   918.5    0.00     475    94.6
 243   16:10   98.8     9    4.3   170      7.3   918.3    0.00     440    94.3
 243   16:20   98.7    10    2.7   254      6.4   918.3    0.00     402    94.1
 243   16:30   98.6    10    2.6   268      5.8   918.2    0.00     136    93.9
 243   16:40   98.4    10    3.2   200      5.7   918.2    0.00      34    93.7
 243   16:50   98.5     9    1.9   220      4.0   918.2    0.00      30    93.5
 243   17:00   98.3    10    2.9   236      9.3   918.1    0.00      30    93.4
 243   17:10   98.1    10    3.1   217      7.8   918.2    0.00      28    93.2
 243   17:20   97.7    10    1.3   257      3.9   918.1    0.00      25    93.0
 243   17:30   97.3    10    1.9   273      3.3   918.1    0.00      23    92.9
 243   17:40   97.0    10    1.6   255      4.7   918.0    0.00      21    92.7
 243   17:50   96.1    11    1.6   254      3.1   917.9    0.00      17    92.6
 243   18:00   95.2    11    2.0   256      4.3   917.9    0.00      15    92.4
 243   18:10   94.2    12    1.8   254      3.7   917.8    0.00      10    92.2
 243   18:20   93.1    12    1.6   250      3.6   917.7    0.00       5    92.1
 243   18:30   92.1    12    1.1   254      3.1   917.7    0.00       3    91.9
 243   18:40   91.2    12    1.3   243      2.4   917.6    0.00       0    91.7
 243   18:50   91.0    12    1.0   236      2.3   917.6    0.00       0    91.6
 243   19:00   90.2    12    0.6   225      1.7   917.6    0.00       0    91.4
 243   19:10   89.3    12    1.2   209      2.0   917.6    0.00       0    91.3
 243   19:20   90.0    12    1.7   112      3.3   917.6    0.00       0    91.1
 243   19:30   90.7    12    2.7   100      5.4   917.6    0.00       0    90.9
 243   19:40   90.2    12    3.6    98      5.0   917.8    0.00       0    90.7
 243   19:50   89.7    12    4.9    99      6.9   917.8    0.00       0    90.5
 243   20:00   89.6    12    5.5    96      7.9   917.9    0.00       0    90.4
 243   20:10   89.6    12    5.6    94      8.6   917.9    0.00       0    90.2
 243   20:20   89.3    12    6.4    95      9.1   918.0    0.00       0    90.1
 243   20:30   88.8    12    6.1    91      9.3   918.1    0.00       0    89.9
 243   20:40   88.5    13    6.1    96      8.5   918.1    0.00       0    89.8
 243   20:50   88.3    13    6.4    93      9.1   918.1    0.00       0    89.7
 243   21:00   88.3    13    6.5    94      9.4   918.1    0.00       0    89.6
 243   21:10   88.1    13    5.6    96      8.3   918.1    0.00       0    89.4
 243   21:20   88.0    13    5.6    97      8.1   918.1    0.00       0    89.3
 243   21:30   87.7    13    5.7    98      8.3   918.1    0.00       0    89.2
 243   21:40   87.6    13    6.0    97      8.7   918.1    0.00       0    89.1
 243   21:50   87.3    13    5.3   100      8.2   918.0    0.00       0    89.0
 243   22:00   86.8    13    4.5    98      6.5   918.0    0.00       0    88.9
 243   22:10   86.7    13    4.1   102      7.1   918.0    0.00       0    88.8
 243   22:20   85.0    14    2.4   258      5.8   918.0    0.00       0    88.7
 243   22:30   83.1    16    2.2   273      4.5   918.0    0.00       0    88.5
 243   22:40   80.6    18    2.5   268      5.7   918.0    0.00       0    88.4
 243   22:50   79.1    18    1.7   245      4.0   917.9    0.00       0    88.3
 243   23:00   79.6    17    1.0   131      2.5   917.9    0.00       0    88.2
 243   23:10   80.3    16    1.6   110      3.7   917.7    0.00       0    88.0
 243   23:20   80.0    17    1.4   178      3.0   917.8    0.00       0    87.9
 243   23:30   78.9    18    1.3   221      3.0   917.8    0.00       0    87.7
 243   23:40   78.8    17    1.3   129      2.3   917.7    0.00       0    87.6
 243   23:50   79.5    16    1.4    70      2.3   917.7    0.00       0    87.4
 244    0:00   78.9    18    0.5   248      2.1   917.6    0.00       0    87.3
 244    0:10   77.3    20    0.8   272      3.2   917.6    0.00       0    87.1
 244    0:20   76.5    20    1.2   206      2.4   917.5    0.00       0    87.0
 244    0:30   76.5    19    0.8   351      2.0   917.5    0.00       0    86.9
 244    0:40   76.5    19    0.8   181      2.1   917.5    0.00       0    86.7
 244    0:50   75.8    20    0.9   233      2.0   917.5    0.00       0    86.6
 244    1:00   75.3    21    1.3   258      2.6   917.5    0.00       0    86.5
 244    1:10   74.9    20    1.0   160      2.0   917.5    0.00       0    86.3
 244    1:20   75.6    19    2.3    74      3.8   917.5    0.00       0    86.1
 244    1:30   75.9    18    3.3    70      6.2   917.4    0.00       0    86.0
 244    1:40   75.8    19    1.3   330      4.3   917.5    0.00       0    85.8
 244    1:50   74.1    22    1.7   295      6.4   917.6    0.00       0    85.7
 244    2:00   73.1    21    2.2   319      6.3   917.6    0.00       0    85.6
 244    2:10   73.7    20    1.6   331      4.5   917.5    0.00       0    85.4
 244    2:20   73.0    22    0.9    35      2.3   917.5    0.00       0    85.3
 244    2:30   72.9    21    1.2    66      2.6   917.4    0.00       0    85.2
 244    2:40   73.0    20    1.0    91      2.5   917.4    0.00       0    85.0
 244    2:50   72.0    23    1.2   236      4.2   917.4    0.00       0    84.8
 244    3:00   70.9    24    0.7   246      1.7   917.4    0.00       0    84.7
 244    3:10   70.8    24    1.1    32      2.2   917.4    0.00       0    84.6
 244    3:20   71.5    22    1.2    77      2.0   917.4    0.00       0    84.5
 244    3:30   72.1    21    0.6   132      1.7   917.3    0.00       0    84.3
 244    3:40   71.5    23    0.6   251      2.0   917.4    0.00       0    84.2
 244    3:50   71.5    21    1.6   139      2.8   917.4    0.00       0    84.1
 244    4:00   71.7    22    1.0   234      2.3   917.6    0.00       0    83.9
 244    4:10   72.1    20    1.3   153      2.0   917.6    0.00       0    83.8
 244    4:20   72.1    20    1.3   126      2.2   917.7    0.00       0    83.7
 244    4:30   72.8    19    1.1   118      2.2   917.8    0.00       0    83.6
 244    4:40   72.0    19    1.8   152      3.3   917.9    0.00       0    83.4
 244    4:50   71.9    19    0.8   167      1.5   917.9    0.00       0    83.3
 244    5:00   71.3    19    0.3   154      1.1   918.0    0.00       0    83.2
 244    5:10   71.0    20    0.1    73      1.2   918.1    0.00       2    83.1
 244    5:20   70.9    20    0.3   220      1.5   918.1    0.00       3    83.0
 244    5:30   70.2    20    0.2   186      1.0   918.2    0.00       6    82.9
 244    5:40   69.7    20    0.8   144      1.5   918.4    0.00      10    82.8
 244    5:50   70.1    20    1.6   180      2.6   918.4    0.00      18    82.7
 244    6:00   71.9    19    0.2   216      1.5   918.5    0.00      61    82.6
 244    6:10   74.0    17    0.7   142      1.7   918.7    0.00     101    82.5
 244    6:20   76.0    16    0.6   181      2.3   919.0    0.00     142    82.4
 244    6:30   78.2    15    0.5   265      2.0   919.3    0.00     174    82.4
 244    6:40   78.4    16    0.3   267      1.3   919.7    0.00     206    82.4
 244    6:50   79.2    16    0.3   208      1.2   920.0    0.00     238    82.5
 244    7:00   80.8    15    0.2    73      1.4   920.3    0.00     271    82.6
 244    7:10   81.2    14    0.6    61      1.3   920.7    0.00     304    82.8
 244    7:20   81.5    14    0.7    48      1.8   921.0    0.00     337    83.1
 244    7:30   81.9    13    0.6    52      2.0   921.2    0.00     371    83.4
 244    7:40   82.8    13    1.1   318      2.4   921.5    0.00     405    83.7
 244    7:50   84.0    13    2.0   314      3.7   921.7    0.00     439    84.1
 244    8:00   84.5    13    2.3   311      4.0   921.7    0.00     474    84.5
 244    8:10   85.4    12    1.8   315      3.5   921.8    0.00     508    84.9
 244    8:20   86.8    12    2.2   306      4.2   921.9    0.00     541    85.3
 244    8:30   88.1    12    1.5   294      3.6   922.1    0.00     573    85.7
 244    8:40   90.2    11    1.7   276      4.2   922.3    0.00     605    86.2
 244    8:50   89.9    12    1.8   295      4.2   922.6    0.00     636    86.6
 244    9:00   89.8    12    2.0   308      4.0   922.7    0.00     666    87.1
 244    9:10   90.2    12    1.9   317      4.9   922.8    0.00     694    87.5
 244    9:20   92.7    11    0.9   292      3.4   922.9    0.00     722    87.8
 244    9:30   93.1    11    1.1   291      3.1   922.9    0.00     747    88.0
 244    9:40   93.7    10    1.2   289      3.7   923.0    0.00     771    88.1
 244    9:50   93.7    10    1.2   348      3.4   923.1    0.00     794    88.2
 244   10:00   95.1    10    1.8   239      4.6   923.1    0.00     816    88.3
 244   10:10   95.6     9    2.1   192      4.5   923.2    0.00     836    88.3
 244   10:20   95.5     9    3.4   176      6.6   923.2    0.00     854    88.3
 244   10:30   95.8     9    3.4   136      6.9   923.1    0.00     870    88.3
 244   10:40   97.2     9    1.9   213      5.2   923.1    0.00     885    88.3
 244   10:50   97.8     9    1.9    98      4.4   923.0    0.00     898    88.2
 244   11:00   98.3     9    2.1   203      6.4   923.0    0.00     910    88.2
 244   11:10   97.9     9    3.4   207      6.9   922.9    0.00     920    88.2
 244   11:20   99.0     9    2.6   302      5.6   922.7    0.00     928    88.2
 244   11:30   99.8     8    3.2   179      6.1   922.6    0.00     935    88.4
 244   11:40   99.3     9    1.4   168      4.1   922.6    0.00     938    88.7
 244   11:50  100.2     9    2.0   144      5.6   922.5    0.00     942    89.1
 244   12:00  100.0     9    2.5   192      6.4   922.5    0.00     943    89.6
 244   12:10   99.7     9    2.0   144      5.6   922.5    0.00     943    90.2
 244   12:20  101.3     9    2.2   293      6.6   922.5    0.00     941    90.8
 244   12:30  101.5     9    1.9   294      5.0   922.4    0.00     937    91.5
 244   12:40  102.4     9    1.4   278      7.7   922.4    0.00     931    92.1
 244   12:50  102.0     9    2.9   282      7.8   922.4    0.00     922    92.9
 244   13:00  101.7     9    4.5   244     11.4   922.2    0.00     913    93.4
 244   13:10  100.9     9    2.8   223      7.5   922.2    0.00     901    94.0
 244   13:20  101.4     9    3.3   196      7.2   922.0    0.00     889    94.5
 244   13:30  100.8     9    2.1   151      5.6   921.8    0.00     872    94.9
 244   13:40  101.2     9    3.4   245      9.3   921.6    0.00     857    95.4

Return to Pahrump, Nevada graphs page.


Western Regional Climate Center,wrcc@dri.edu